Time;durP1;ratioP1;P1;durP2;ratioP2;P2;SDS_P1;SDS_P2;PMS_P1;PMS_P2;Temp;Humidity;BMP_temperature;BMP_pressure;BME280_temperature;BME280_humidity;BME280_pressure;Samples;Min_cycle;Max_cycle;Signal;HPM_P1;HPM_P2
2023/03/27 00:01:00;;;;;;;8.25;0.98;;;2.70;99.90;;;;;;5078378;28;25064;-74
2023/03/27 00:03:29;;;;;;;5.43;1.92;;;2.70;99.90;;;;;;5077709;28;25058;-74
2023/03/27 00:06:10;;;;;;;6.68;1.33;;;2.70;99.90;;;;;;5078320;28;25096;-74
2023/03/27 00:08:37;;;;;;;7.20;0.88;;;2.60;99.90;;;;;;5077600;28;25050;-74
2023/03/27 00:11:06;;;;;;;7.50;1.25;;;2.60;99.90;;;;;;5077628;28;25145;-74
2023/03/27 00:13:34;;;;;;;8.77;1.15;;;2.60;99.90;;;;;;5078110;28;25148;-74
2023/03/27 00:16:01;;;;;;;10.75;1.73;;;2.60;99.90;;;;;;5059743;28;25129;-74
2023/03/27 00:18:29;;;;;;;12.88;1.30;;;2.60;99.90;;;;;;5077377;28;25139;-74
2023/03/27 00:21:02;;;;;;;3.90;0.73;;;2.60;99.90;;;;;;5059600;28;25072;-74
2023/03/27 00:23:30;;;;;;;9.57;2.60;;;2.50;99.90;;;;;;5076924;28;25111;-74
2023/03/27 00:25:59;;;;;;;10.35;1.35;;;2.50;99.90;;;;;;5077134;28;25056;-74
2023/03/27 00:28:28;;;;;;;6.45;1.40;;;2.40;99.90;;;;;;5077318;28;25108;-74
2023/03/27 00:30:57;;;;;;;8.98;1.33;;;2.30;99.90;;;;;;5077267;28;25063;-74
2023/03/27 00:33:26;;;;;;;13.07;1.13;;;2.20;99.90;;;;;;5077061;28;25053;-74
2023/03/27 00:35:53;;;;;;;6.53;0.68;;;2.20;99.90;;;;;;5077296;28;25067;-74
2023/03/27 00:38:21;;;;;;;7.38;0.98;;;2.10;99.90;;;;;;5077044;28;25078;-74
2023/03/27 00:40:54;;;;;;;13.50;1.33;;;2.00;99.90;;;;;;5077092;28;25065;-74
2023/03/27 00:43:26;;;;;;;9.73;2.38;;;2.00;99.90;;;;;;5076846;28;25109;-74
2023/03/27 00:46:04;;;;;;;6.53;0.60;;;1.90;99.90;;;;;;5077341;28;25077;-74
2023/03/27 00:48:35;;;;;;;9.95;1.00;;;1.80;99.90;;;;;;5077106;28;25081;-74
2023/03/27 00:51:04;;;;;;;9.75;2.10;;;1.80;99.90;;;;;;5077268;28;25116;-74
2023/03/27 00:53:32;;;;;;;7.47;0.95;;;1.70;99.90;;;;;;5076893;28;25064;-74
2023/03/27 00:56:03;;;;;;;10.23;1.38;;;1.60;99.90;;;;;;5076769;28;25045;-74
2023/03/27 00:58:46;;;;;;;3.28;0.60;;;1.50;99.90;;;;;;5077278;28;25076;-74
2023/03/27 01:01:15;;;;;;;5.00;0.77;;;1.50;99.90;;;;;;5077128;28;25058;-74
2023/03/27 01:03:45;;;;;;;3.38;1.40;;;1.40;99.90;;;;;;5058803;28;25076;-74
2023/03/27 01:06:15;;;;;;;10.68;2.13;;;1.40;99.90;;;;;;5076904;28;25073;-74
2023/03/27 01:08:45;;;;;;;12.20;1.23;;;1.40;99.90;;;;;;5077100;28;25086;-74
2023/03/27 01:11:30;;;;;;;8.88;1.30;;;1.30;99.90;;;;;;5076686;28;25059;-74
2023/03/27 01:14:09;;;;;;;6.78;0.80;;;1.30;99.90;;;;;;5076720;28;25073;-74
2023/03/27 01:17:16;;;;;;;9.10;0.70;;;1.30;99.90;;;;;;5076419;28;25109;-74
2023/03/27 01:19:50;;;;;;;14.32;1.05;;;1.20;99.90;;;;;;5075049;28;25111;-74
2023/03/27 01:22:35;;;;;;;15.23;1.30;;;1.20;99.90;;;;;;5077137;28;25080;-74
2023/03/27 01:25:25;;;;;;;3.53;1.17;;;1.20;99.90;;;;;;5058501;28;25102;-74
2023/03/27 01:28:19;;;;;;;8.88;1.38;;;1.20;99.90;;;;;;5076641;28;25069;-74
2023/03/27 01:30:56;;;;;;;7.38;1.60;;;1.20;99.90;;;;;;5076582;28;25141;-74
2023/03/27 01:33:41;;;;;;;;;;;1.10;99.90;;;;;;5076998;28;25105;-74
2023/03/27 01:36:20;;;;;;;3.78;1.23;;;1.10;99.90;;;;;;5076178;28;24109;-74
2023/03/27 01:39:15;;;;;;;8.63;2.03;;;1.10;99.90;;;;;;5076271;28;25062;-74
2023/03/27 01:42:08;;;;;;;8.95;2.33;;;1.00;99.90;;;;;;5076547;28;25117;-74
2023/03/27 01:44:48;;;;;;;6.97;1.13;;;1.00;99.90;;;;;;5076430;28;25070;-74
2023/03/27 01:47:40;;;;;;;6.25;1.08;;;0.90;99.90;;;;;;5076379;28;25060;-74
2023/03/27 01:50:27;;;;;;;12.10;1.20;;;0.90;99.90;;;;;;5076183;28;25068;-74
2023/03/27 01:53:03;;;;;;;5.45;1.02;;;0.80;99.90;;;;;;5054738;28;25124;-74
2023/03/27 01:55:35;;;;;;;5.43;0.77;;;0.80;99.90;;;;;;5056236;28;25131;-74
2023/03/27 01:58:44;;;;;;;7.65;1.02;;;0.80;99.90;;;;;;5056574;28;25097;-74
2023/03/27 02:01:21;;;;;;;5.88;0.85;;;0.80;99.90;;;;;;4995025;28;25060;-74
2023/03/27 02:03:51;;;;;;;;;;;0.80;99.90;;;;;;5049793;28;25110;-74
2023/03/27 02:06:27;;;;;;;3.35;0.85;;;0.80;99.90;;;;;;5056398;28;25114;-74
2023/03/27 02:09:04;;;;;;;7.60;0.90;;;0.80;99.90;;;;;;5056264;28;25062;-74
2023/03/27 02:11:41;;;;;;;6.38;1.02;;;0.80;99.90;;;;;;5056421;28;25108;-74
2023/03/27 02:14:20;;;;;;;13.02;1.50;;;0.70;99.90;;;;;;5055858;28;25121;-74
2023/03/27 02:16:54;;;;;;;8.45;0.98;;;0.70;99.90;;;;;;5056114;28;25077;-74
2023/03/27 02:19:29;;;;;;;11.52;1.58;;;0.70;99.90;;;;;;5056089;28;25145;-74
2023/03/27 02:21:56;;;;;;;10.15;2.25;;;0.60;99.90;;;;;;5056457;28;25066;-74
2023/03/27 02:24:24;;;;;;;9.20;0.77;;;0.60;99.90;;;;;;5056249;28;25045;-74
2023/03/27 02:27:08;;;;;;;14.65;1.67;;;0.60;99.90;;;;;;5055734;28;25067;-74
2023/03/27 02:30:03;;;;;;;12.18;1.20;;;0.60;99.90;;;;;;5055704;28;25064;-74
2023/03/27 02:32:57;;;;;;;6.22;1.00;;;0.60;99.90;;;;;;5055651;28;25097;-74
2023/03/27 02:35:53;;;;;;;6.55;1.83;;;0.60;99.90;;;;;;5055619;28;25069;-74
2023/03/27 02:38:33;;;;;;;11.60;1.08;;;0.60;99.90;;;;;;5055671;28;25075;-74
2023/03/27 02:41:31;;;;;;;6.10;1.23;;;0.60;99.90;;;;;;5056051;28;25120;-74
2023/03/27 02:44:13;;;;;;;10.30;1.52;;;0.50;99.90;;;;;;5054437;28;25082;-74
2023/03/27 02:46:52;;;;;;;6.90;1.00;;;0.50;99.90;;;;;;5054511;28;25071;-74
2023/03/27 02:49:33;;;;;;;8.32;1.00;;;0.50;99.90;;;;;;5058070;28;25071;-74
2023/03/27 02:52:11;;;;;;;14.55;1.30;;;0.50;99.90;;;;;;5059126;28;25126;-74
2023/03/27 02:54:46;;;;;;;8.20;1.00;;;0.50;99.90;;;;;;5077114;28;25107;-74
2023/03/27 02:57:19;;;;;;;19.88;1.92;;;0.60;99.90;;;;;;5079179;28;25052;-74
2023/03/27 02:59:55;;;;;;;5.57;0.88;;;0.60;99.90;;;;;;5078973;28;25074;-74
2023/03/27 03:02:36;;;;;;;16.42;2.25;;;0.70;99.90;;;;;;5078975;28;25149;-74
2023/03/27 03:05:12;;;;;;;4.55;0.95;;;0.70;99.90;;;;;;5078759;28;25063;-74
2023/03/27 03:07:39;;;;;;;9.85;1.73;;;0.80;99.90;;;;;;5079429;28;25103;-74
2023/03/27 03:10:12;;;;;;;5.65;0.85;;;0.90;99.90;;;;;;5079074;28;25067;-74
2023/03/27 03:12:40;;;;;;;4.78;1.15;;;0.90;99.90;;;;;;5078672;28;25124;-74
2023/03/27 03:15:08;;;;;;;7.00;1.40;;;1.00;99.90;;;;;;5079359;28;25063;-74
2023/03/27 03:17:35;;;;;;;8.82;1.20;;;1.00;99.90;;;;;;5078647;28;25090;-74
2023/03/27 03:20:04;;;;;;;7.93;1.27;;;1.00;99.90;;;;;;5078607;28;25066;-74
2023/03/27 03:22:32;;;;;;;9.68;2.08;;;1.00;99.90;;;;;;5078502;28;25120;-74
2023/03/27 03:24:59;;;;;;;17.73;1.23;;;1.00;99.90;;;;;;5078423;28;25104;-74
2023/03/27 03:27:27;;;;;;;5.18;1.10;;;0.90;99.90;;;;;;5079173;28;25140;-74
2023/03/27 03:29:55;;;;;;;7.20;1.42;;;0.90;99.90;;;;;;5078295;28;25070;-74
2023/03/27 03:32:23;;;;;;;8.40;1.20;;;0.80;99.90;;;;;;5078343;28;25080;-73
2023/03/27 03:34:50;;;;;;;14.90;2.00;;;0.80;99.90;;;;;;5078633;28;25161;-74
2023/03/27 03:37:19;;;;;;;10.75;0.93;;;0.80;99.90;;;;;;5078492;28;25097;-74
2023/03/27 03:39:46;;;;;;;11.27;1.65;;;0.80;99.90;;;;;;5078219;28;25116;-74
2023/03/27 03:42:14;;;;;;;6.57;1.05;;;0.70;99.90;;;;;;5078774;28;25064;-74
2023/03/27 03:44:41;;;;;;;8.98;1.13;;;0.70;99.90;;;;;;5078091;28;25088;-74
2023/03/27 03:47:08;;;;;;;11.00;2.00;;;0.70;99.90;;;;;;5078265;28;25079;-74
2023/03/27 03:49:36;;;;;;;7.78;1.83;;;0.60;99.90;;;;;;5078616;28;25153;-74
2023/03/27 03:52:03;;;;;;;13.20;1.52;;;0.60;99.90;;;;;;5078296;28;25063;-74
2023/03/27 03:54:31;;;;;;;11.88;3.33;;;0.60;99.90;;;;;;5077777;28;25103;-74
2023/03/27 03:56:59;;;;;;;9.70;0.98;;;0.60;99.90;;;;;;5078024;28;25069;-74
2023/03/27 03:59:26;;;;;;;7.82;1.23;;;0.70;99.90;;;;;;5076964;28;25110;-73
2023/03/27 04:01:54;;;;;;;6.45;1.13;;;0.60;99.90;;;;;;5078112;28;25097;-74
2023/03/27 04:04:21;;;;;;;12.95;2.05;;;0.60;99.90;;;;;;5078195;28;25081;-74
2023/03/27 04:06:48;;;;;;;6.30;1.00;;;0.60;99.90;;;;;;5078127;28;25107;-73
2023/03/27 04:09:16;;;;;;;13.80;1.48;;;0.60;99.90;;;;;;5077634;28;25099;-74
2023/03/27 04:11:43;;;;;;;7.65;1.15;;;0.60;99.90;;;;;;5077536;28;25109;-73
2023/03/27 04:14:10;;;;;;;12.05;2.03;;;0.60;99.90;;;;;;5077776;28;25059;-73
2023/03/27 04:16:38;;;;;;;8.93;1.52;;;0.50;99.90;;;;;;5059886;28;25115;-73
2023/03/27 04:19:05;;;;;;;14.15;1.48;;;0.50;99.90;;;;;;5077991;28;25089;-73
2023/03/27 04:21:35;;;;;;;4.70;1.67;;;0.40;99.90;;;;;;5077682;28;25128;-74
2023/03/27 04:24:03;;;;;;;6.50;1.00;;;0.30;99.90;;;;;;5077284;28;25059;-74
2023/03/27 04:26:30;;;;;;;13.77;1.48;;;0.30;99.90;;;;;;5077252;28;25074;-74
2023/03/27 04:28:57;;;;;;;6.88;0.93;;;0.20;99.90;;;;;;5077215;28;25096;-74
2023/03/27 04:31:25;;;;;;;9.52;1.30;;;0.10;99.90;;;;;;5077456;28;25082;-74
2023/03/27 04:33:52;;;;;;;12.55;1.30;;;0.10;99.90;;;;;;5077739;28;25106;-74
2023/03/27 04:36:19;;;;;;;7.05;1.80;;;0.00;99.90;;;;;;5077080;28;25074;-73
2023/03/27 04:38:47;;;;;;;10.98;1.13;;;0.00;99.90;;;;;;5059245;28;25066;-74
2023/03/27 04:41:14;;;;;;;9.40;2.25;;;-0.10;99.90;;;;;;5077154;28;25056;-74
2023/03/27 04:43:41;;;;;;;15.60;1.63;;;-0.10;99.90;;;;;;5076980;28;25067;-74
2023/03/27 04:46:08;;;;;;;10.38;1.15;;;-0.10;99.90;;;;;;5077420;28;25075;-73
2023/03/27 04:48:37;;;;;;;5.50;0.90;;;-0.10;99.90;;;;;;5059121;28;25085;-74
2023/03/27 04:51:07;;;;;;;15.70;1.90;;;-0.20;99.90;;;;;;5076901;28;25074;-73
2023/03/27 04:53:36;;;;;;;13.65;1.80;;;-0.20;99.90;;;;;;5076604;28;25067;-73
2023/03/27 04:56:05;;;;;;;8.70;1.52;;;-0.30;99.90;;;;;;5076723;28;25077;-73
2023/03/27 04:58:33;;;;;;;12.48;2.08;;;-0.30;99.90;;;;;;5058999;28;25122;-73
2023/03/27 05:01:01;;;;;;;10.20;1.25;;;-0.40;99.90;;;;;;5059098;28;25073;-73
2023/03/27 05:03:28;;;;;;;8.43;1.63;;;-0.40;99.90;;;;;;5076501;28;25068;-73
2023/03/27 05:05:55;;;;;;;5.47;1.52;;;-0.40;99.90;;;;;;5076596;28;25095;-73
2023/03/27 05:08:22;;;;;;;8.38;2.13;;;-0.50;99.90;;;;;;5076586;28;25084;-74
2023/03/27 05:10:50;;;;;;;7.10;1.48;;;-0.50;99.90;;;;;;5076898;28;25051;-73
2023/03/27 05:13:18;;;;;;;9.70;1.27;;;-0.50;99.90;;;;;;5076458;28;25072;-73
2023/03/27 05:15:45;;;;;;;5.43;1.00;;;-0.60;99.90;;;;;;5076535;28;25152;-73
2023/03/27 05:18:12;;;;;;;10.90;2.03;;;-0.60;99.90;;;;;;5076744;28;25124;-74
2023/03/27 05:20:40;;;;;;;4.60;1.75;;;-0.60;99.90;;;;;;5058783;28;25068;-73
2023/03/27 05:23:07;;;;;;;13.88;1.70;;;-0.60;99.90;;;;;;5076964;28;25059;-74
2023/03/27 05:25:35;;;;;;;10.20;1.42;;;-0.60;99.90;;;;;;5076650;28;25059;-73
2023/03/27 05:28:02;;;;;;;7.10;1.17;;;-0.60;99.90;;;;;;5076887;28;25066;-72
2023/03/27 05:30:29;;;;;;;9.00;1.80;;;-0.60;99.90;;;;;;5076989;28;25068;-74
2023/03/27 05:32:58;;;;;;;4.13;1.30;;;-0.60;99.90;;;;;;5076555;28;25095;-74
2023/03/27 05:35:27;;;;;;;11.50;1.45;;;-0.60;99.90;;;;;;5076870;28;25143;-74
2023/03/27 05:37:56;;;;;;;13.27;2.00;;;-0.50;99.90;;;;;;5076830;28;25122;-74
2023/03/27 05:40:25;;;;;;;12.18;1.27;;;-0.50;99.90;;;;;;5076221;28;25055;-74
2023/03/27 05:42:56;;;;;;;12.88;1.45;;;-0.40;99.90;;;;;;5076116;28;25103;-74
2023/03/27 05:45:23;;;;;;;7.28;1.77;;;-0.40;99.90;;;;;;5076605;28;25109;-74
2023/03/27 05:47:53;;;;;;;8.30;1.88;;;-0.30;99.90;;;;;;5076224;28;25122;-74
2023/03/27 05:50:27;;;;;;;9.30;1.63;;;-0.30;99.90;;;;;;5076380;28;25059;-82
2023/03/27 05:53:00;;;;;;;16.25;2.80;;;-0.20;99.90;;;;;;5076047;28;25076;-78
2023/03/27 05:55:29;;;;;;;6.80;1.52;;;-0.20;99.90;;;;;;5058311;28;25059;-78
2023/03/27 05:57:56;;;;;;;9.00;2.50;;;-0.10;99.90;;;;;;5076266;28;25091;-78
2023/03/27 06:00:25;;;;;;;6.78;1.80;;;-0.10;99.90;;;;;;5076663;28;25074;-90
2023/03/27 06:02:57;;;;;;;13.35;1.58;;;0.00;99.90;;;;;;5058363;28;25101;-81
2023/03/27 06:05:28;;;;;;;11.68;1.80;;;0.00;99.90;;;;;;5075954;28;25077;-80
2023/03/27 06:07:59;;;;;;;8.43;1.85;;;0.00;99.90;;;;;;5075858;28;25061;-75
2023/03/27 06:10:28;;;;;;;8.52;1.50;;;0.10;99.90;;;;;;5078537;28;25134;-77
2023/03/27 06:13:01;;;;;;;8.95;1.55;;;0.10;99.90;;;;;;5076298;28;25065;-84
2023/03/27 06:15:29;;;;;;;4.97;1.67;;;0.20;99.90;;;;;;5058219;28;25105;-78
2023/03/27 06:17:56;;;;;;;10.10;1.67;;;0.20;99.90;;;;;;5076106;28;25078;-83
2023/03/27 06:20:24;;;;;;;16.02;1.60;;;0.20;99.90;;;;;;5058514;28;25102;-83
2023/03/27 06:22:54;;;;;;;8.93;1.38;;;0.30;99.90;;;;;;5077677;28;25125;-81
2023/03/27 06:25:24;;;;;;;8.13;1.42;;;0.30;99.90;;;;;;5061886;28;25132;-80
2023/03/27 06:27:52;;;;;;;9.23;1.73;;;0.30;99.90;;;;;;5079519;28;25080;-78
2023/03/27 06:30:22;;;;;;;12.60;1.95;;;0.30;99.90;;;;;;5061927;28;25120;-78
2023/03/27 06:32:52;;;;;;;12.07;2.03;;;0.40;99.90;;;;;;5079732;28;25060;-79
2023/03/27 06:35:21;;;;;;;6.93;1.58;;;0.50;99.90;;;;;;5079412;28;25097;-80
2023/03/27 06:37:52;;;;;;;14.10;1.95;;;0.50;99.90;;;;;;5061608;28;25060;-79
2023/03/27 06:40:22;;;;;;;7.30;1.33;;;0.60;99.90;;;;;;5079558;28;25084;-79
2023/03/27 06:42:55;;;;;;;8.32;2.28;;;0.70;99.90;;;;;;5079258;28;25054;-73
2023/03/27 06:45:23;;;;;;;8.38;1.77;;;0.90;99.90;;;;;;5079184;28;25109;-74
2023/03/27 06:47:57;;;;;;;10.52;1.60;;;1.10;99.90;;;;;;5079187;28;25050;-73
2023/03/27 06:50:27;;;;;;;4.10;0.70;;;1.30;99.90;;;;;;5079150;28;25077;-73
2023/03/27 06:52:54;;;;;;;6.47;1.80;;;1.50;99.90;;;;;;5078930;28;25077;-74
2023/03/27 06:55:26;;;;;;;10.68;2.08;;;1.70;99.90;;;;;;5061292;28;25077;-75
2023/03/27 06:57:56;;;;;;;11.73;3.13;;;1.80;99.90;;;;;;5079279;28;25114;-75
2023/03/27 07:00:27;;;;;;;7.30;1.15;;;2.00;99.90;;;;;;5078988;28;25069;-74
2023/03/27 07:02:57;;;;;;;19.27;3.42;;;2.10;99.90;;;;;;5079206;28;25078;-74
2023/03/27 07:05:26;;;;;;;9.93;2.33;;;2.20;99.90;;;;;;5061284;28;25076;-74
2023/03/27 07:07:55;;;;;;;6.65;1.70;;;2.20;99.90;;;;;;5078848;28;25066;-74
2023/03/27 07:10:24;;;;;;;10.77;1.55;;;2.20;99.90;;;;;;5078841;28;25108;-73
2023/03/27 07:12:53;;;;;;;8.07;1.65;;;2.20;99.90;;;;;;5079337;28;25083;-74
2023/03/27 07:15:22;;;;;;;9.70;2.00;;;2.20;99.90;;;;;;5078699;28;25062;-74
2023/03/27 07:18:00;;;;;;;10.93;1.55;;;2.20;99.90;;;;;;5060936;28;25124;-74
2023/03/27 07:20:30;;;;;;;5.55;1.50;;;2.10;99.90;;;;;;5078894;28;25067;-74
2023/03/27 07:22:59;;;;;;;7.88;1.88;;;2.10;99.90;;;;;;5078835;28;25077;-74
2023/03/27 07:25:37;;;;;;;5.25;1.10;;;2.10;99.90;;;;;;5078477;28;25118;-74
2023/03/27 07:28:11;;;;;;;10.15;1.60;;;2.10;99.90;;;;;;5078744;28;25069;-74
2023/03/27 07:30:38;;;;;;;6.10;2.03;;;2.10;99.90;;;;;;5078425;28;25071;-75
2023/03/27 07:33:08;;;;;;;11.13;1.25;;;2.10;99.90;;;;;;5078057;28;25076;-75
2023/03/27 07:35:45;;;;;;;10.38;1.50;;;2.20;99.90;;;;;;5078345;28;25075;-75
2023/03/27 07:38:13;;;;;;;6.80;1.40;;;2.30;99.90;;;;;;5078291;28;25138;-74
2023/03/27 07:40:44;;;;;;;14.90;1.75;;;2.50;99.90;;;;;;5078190;28;25072;-73
2023/03/27 07:43:12;;;;;;;6.10;1.60;;;2.60;99.90;;;;;;5078213;28;25033;-73
2023/03/27 07:45:40;;;;;;;4.93;1.40;;;2.80;99.90;;;;;;5078366;28;25117;-73
2023/03/27 07:48:15;;;;;;;17.55;1.77;;;2.90;99.90;;;;;;5060317;28;25082;-73
2023/03/27 07:50:43;;;;;;;8.38;1.60;;;2.90;99.90;;;;;;5078243;28;25065;-73
2023/03/27 07:53:11;;;;;;;7.28;1.88;;;2.90;99.90;;;;;;5077765;28;25092;-73
2023/03/27 07:55:40;;;;;;;6.22;1.58;;;2.90;99.90;;;;;;5077847;28;25064;-75
2023/03/27 07:58:09;;;;;;;9.35;2.20;;;2.90;99.90;;;;;;5077773;28;25130;-73
2023/03/27 08:00:37;;;;;;;16.20;1.90;;;2.90;99.90;;;;;;5060020;28;25072;-74
2023/03/27 08:03:10;;;;;;;7.60;1.65;;;3.00;99.90;;;;;;5078055;28;25104;-74
2023/03/27 08:05:38;;;;;;;6.28;1.50;;;3.00;99.90;;;;;;5077699;28;25060;-76
2023/03/27 08:08:05;;;;;;;6.18;1.30;;;3.10;99.90;;;;;;5077654;28;25086;-75
2023/03/27 08:10:34;;;;;;;5.40;1.33;;;3.20;99.90;;;;;;5077865;28;25065;-75
2023/03/27 08:13:01;;;;;;;8.68;2.75;;;3.40;99.90;;;;;;5077540;28;25056;-74
2023/03/27 08:15:28;;;;;;;5.53;1.23;;;3.50;99.90;;;;;;5077779;28;25116;-75
2023/03/27 08:18:00;;;;;;;4.15;0.98;;;3.50;99.90;;;;;;5077417;28;25051;-75
2023/03/27 08:20:29;;;;;;;7.88;1.25;;;3.50;99.90;;;;;;5077383;28;25108;-76
2023/03/27 08:22:56;;;;;;;8.50;1.13;;;3.60;99.90;;;;;;5077368;28;25085;-76
2023/03/27 08:25:25;;;;;;;7.70;1.40;;;3.60;99.90;;;;;;5077238;28;25147;-76
2023/03/27 08:27:53;;;;;;;12.93;1.50;;;3.70;99.90;;;;;;5077231;28;25067;-76
2023/03/27 08:30:22;;;;;;;2.30;0.63;;;3.70;99.90;;;;;;5077234;28;25075;-76
2023/03/27 08:32:50;;;;;;;7.75;1.10;;;3.90;99.90;;;;;;5077429;28;25073;-76
2023/03/27 08:35:18;;;;;;;9.23;1.85;;;4.00;99.90;;;;;;5077357;28;25067;-76
2023/03/27 08:37:46;;;;;;;7.13;1.20;;;4.00;99.90;;;;;;5077332;28;25077;-74
2023/03/27 08:40:22;;;;;;;5.30;1.23;;;4.10;99.90;;;;;;5076991;28;25348;-75
2023/03/27 08:42:53;;;;;;;3.28;0.88;;;4.20;99.90;;;;;;5077495;28;25058;-74
2023/03/27 08:45:28;;;;;;;5.28;1.85;;;4.40;99.90;;;;;;5076233;28;25065;-74
2023/03/27 08:48:06;;;;;;;6.57;1.17;;;4.50;99.90;;;;;;5077202;28;25069;-74
2023/03/27 08:51:02;;;;;;;10.88;1.38;;;4.70;99.90;;;;;;5076890;28;25071;-75
2023/03/27 08:53:44;;;;;;;4.75;0.98;;;4.90;99.90;;;;;;5077759;28;25085;-74
2023/03/27 08:56:19;;;;;;;9.63;1.23;;;5.00;99.90;;;;;;5077591;28;25122;-75
2023/03/27 08:58:47;;;;;;;3.75;0.80;;;5.00;99.90;;;;;;5076910;28;25056;-75
2023/03/27 09:01:46;;;;;;;5.85;1.52;;;5.10;99.90;;;;;;5076712;28;25067;-76
2023/03/27 09:04:32;;;;;;;7.57;1.30;;;5.10;99.90;;;;;;5076843;28;25062;-78
2023/03/27 09:07:04;;;;;;;5.32;2.00;;;5.10;99.90;;;;;;5076826;28;25070;-78
2023/03/27 09:09:58;;;;;;;6.20;1.23;;;5.00;99.90;;;;;;5058814;28;25048;-76
2023/03/27 09:12:47;;;;;;;4.93;1.38;;;5.10;99.90;;;;;;5064144;28;25073;-75
2023/03/27 09:15:34;;;;;;;4.22;0.82;;;5.20;99.90;;;;;;5076714;28;25055;-75
2023/03/27 09:18:21;;;;;;;3.92;0.98;;;5.50;99.90;;;;;;5058740;28;25105;-75
2023/03/27 09:21:05;;;;;;;2.60;0.85;;;5.50;99.90;;;;;;5076504;28;25143;-76
2023/03/27 09:23:44;;;;;;;6.85;1.65;;;5.40;99.90;;;;;;5076705;28;25059;-75
2023/03/27 09:26:27;;;;;;;3.15;0.90;;;5.30;99.90;;;;;;5076516;28;25102;-76
2023/03/27 09:29:12;;;;;;;3.97;0.70;;;5.30;99.90;;;;;;5076955;28;25142;-76
2023/03/27 09:31:47;;;;;;;3.58;0.65;;;5.40;99.90;;;;;;5076386;28;25056;-75
2023/03/27 09:34:21;;;;;;;3.40;0.80;;;5.40;99.90;;;;;;5076557;28;25117;-76
2023/03/27 09:36:50;;;;;;;4.35;0.93;;;5.40;99.90;;;;;;5076501;28;25088;-76
2023/03/27 09:39:21;;;;;;;6.10;1.33;;;5.40;99.90;;;;;;5076530;28;25132;-75
2023/03/27 09:42:36;;;;;;;6.47;0.85;;;5.60;99.90;;;;;;5058476;28;25074;-75
2023/03/27 09:45:07;;;;;;;9.65;1.55;;;5.70;99.90;;;;;;5053562;28;25073;-74
2023/03/27 09:47:50;;;;;;;3.50;0.60;;;5.80;99.90;;;;;;5076438;28;25111;-75
2023/03/27 09:50:29;;;;;;;1.40;0.50;;;5.80;99.90;;;;;;5076461;28;25110;-73
2023/03/27 09:53:09;;;;;;;2.80;0.70;;;5.80;99.90;;;;;;5075896;28;25165;-76
2023/03/27 09:55:51;;;;;;;5.95;0.95;;;5.90;99.90;;;;;;5058480;28;25135;-75
2023/03/27 09:58:47;;;;;;;5.28;1.00;;;5.80;99.90;;;;;;5080140;28;25127;-73
2023/03/27 10:01:21;;;;;;;5.28;1.27;;;5.80;99.90;;;;;;5077407;28;25083;-74
2023/03/27 10:03:55;;;;;;;1.40;0.45;;;5.90;99.90;;;;;;5062233;28;25070;-74
2023/03/27 10:06:43;;;;;;;6.07;1.75;;;6.00;99.90;;;;;;5079988;28;25123;-74
2023/03/27 10:09:31;;;;;;;4.38;0.60;;;6.10;99.90;;;;;;5080199;28;25070;-74
2023/03/27 10:12:10;;;;;;;3.60;0.57;;;6.20;99.90;;;;;;5079917;28;25055;-73
2023/03/27 10:14:41;;;;;;;2.53;0.47;;;6.30;99.90;;;;;;5079836;28;25124;-75
2023/03/27 10:17:34;;;;;;;5.25;0.70;;;6.30;99.90;;;;;;5079839;28;25118;-77
2023/03/27 10:20:13;;;;;;;7.18;1.10;;;6.30;99.90;;;;;;5079839;28;25072;-76
2023/03/27 10:22:42;;;;;;;3.53;0.40;;;6.40;99.90;;;;;;5079669;28;25100;-75
2023/03/27 10:25:20;;;;;;;3.13;1.05;;;6.50;99.90;;;;;;5079531;28;25099;-74
2023/03/27 10:27:48;;;;;;;5.50;0.68;;;6.60;99.90;;;;;;5079565;28;25108;-75
2023/03/27 10:30:30;;;;;;;2.70;0.80;;;6.60;99.90;;;;;;5079700;28;25086;-75
2023/03/27 10:32:58;;;;;;;5.70;0.70;;;6.50;99.90;;;;;;5079651;28;25155;-75
2023/03/27 10:35:33;;;;;;;0.85;0.50;;;6.50;99.90;;;;;;5061736;28;25094;-74
2023/03/27 10:38:10;;;;;;;0.63;0.20;;;6.70;99.90;;;;;;5079690;28;25076;-74
2023/03/27 10:40:41;;;;;;;2.25;0.55;;;6.80;99.90;;;;;;5079333;28;25072;-75
2023/03/27 10:43:19;;;;;;;4.03;0.50;;;6.80;99.90;;;;;;5079264;28;25072;-74
2023/03/27 10:45:59;;;;;;;4.50;1.05;;;7.00;99.90;;;;;;5061401;28;25088;-75
2023/03/27 10:48:39;;;;;;;5.18;0.82;;;7.20;99.90;;;;;;5079212;28;25072;-73
2023/03/27 10:51:17;;;;;;;2.40;0.50;;;7.40;99.90;;;;;;5079578;28;25065;-75
2023/03/27 10:53:55;;;;;;;2.50;0.70;;;7.50;99.90;;;;;;5057883;28;25133;-74
2023/03/27 10:57:01;;;;;;;4.63;0.52;;;7.40;99.60;;;;;;5059043;28;25053;-73
2023/03/27 10:59:40;;;;;;;2.37;0.40;;;7.20;99.90;;;;;;5059196;28;25101;-76
2023/03/27 11:02:32;;;;;;;8.02;0.75;;;7.00;99.50;;;;;;5059115;28;25057;-76
2023/03/27 11:05:15;;;;;;;1.27;0.68;;;6.60;99.60;;;;;;5059432;28;25072;-75
2023/03/27 11:07:59;;;;;;;2.08;0.40;;;6.20;99.90;;;;;;5057295;28;25087;-75
2023/03/27 11:10:46;;;;;;;2.20;0.77;;;5.60;99.90;;;;;;5059560;28;25046;-75
2023/03/27 11:13:25;;;;;;;4.40;0.95;;;4.50;99.90;;;;;;5059050;28;25073;-73
2023/03/27 11:16:15;;;;;;;1.77;0.40;;;3.90;99.90;;;;;;5059019;28;25130;-74
2023/03/27 11:18:51;;;;;;;3.13;0.70;;;3.60;99.90;;;;;;5058643;28;25112;-75
2023/03/27 11:21:57;;;;;;;3.60;0.82;;;3.40;99.90;;;;;;5058902;28;25054;-75
2023/03/27 11:24:34;;;;;;;0.60;0.47;;;3.30;99.90;;;;;;5025713;28;25067;-74
2023/03/27 11:27:47;;;;;;;2.05;0.55;;;3.30;99.90;;;;;;5058720;28;25070;-73
2023/03/27 11:30:27;;;;;;;6.18;0.68;;;3.30;99.90;;;;;;4997366;28;25074;-75
2023/03/27 11:33:36;;;;;;;1.27;0.52;;;3.30;99.90;;;;;;5071816;28;25115;-76
2023/03/27 11:36:40;;;;;;;2.63;0.70;;;3.40;99.90;;;;;;5059107;28;25080;-74
2023/03/27 11:39:25;;;;;;;2.25;0.98;;;3.50;99.90;;;;;;5058273;28;25075;-75
2023/03/27 11:42:01;;;;;;;2.72;0.77;;;3.80;99.90;;;;;;5058203;28;25141;-74
2023/03/27 11:44:29;;;;;;;4.38;1.38;;;4.20;99.90;;;;;;5058134;28;24857;-74
2023/03/27 11:47:23;;;;;;;3.55;0.82;;;4.70;99.90;;;;;;5058227;28;25100;-75
2023/03/27 11:50:06;;;;;;;3.08;0.50;;;5.30;99.90;;;;;;5058317;28;25056;-75
2023/03/27 11:52:56;;;;;;;2.92;0.60;;;5.70;99.90;;;;;;5058029;28;25113;-76
2023/03/27 11:55:58;;;;;;;1.27;0.20;;;5.90;99.90;;;;;;5060446;28;25078;-75
2023/03/27 11:59:04;;;;;;;2.63;0.70;;;5.70;99.90;;;;;;5078135;28;25059;-75
2023/03/27 12:01:44;;;;;;;3.30;0.90;;;5.20;99.90;;;;;;5077903;28;25137;-77
2023/03/27 12:04:39;;;;;;;1.13;0.40;;;4.60;99.90;;;;;;5077978;28;25066;-76
2023/03/27 12:07:28;;;;;;;2.78;0.43;;;3.60;99.90;;;;;;5068415;28;25091;-75
2023/03/27 12:10:15;;;;;;;1.23;0.40;;;3.00;99.90;;;;;;5078257;28;25128;-75
2023/03/27 12:13:01;;;;;;;1.33;0.35;;;2.50;99.90;;;;;;5077904;28;25065;-75
2023/03/27 12:15:50;;;;;;;0.65;0.30;;;2.40;99.90;;;;;;5078181;28;25071;-75
2023/03/27 12:18:40;;;;;;;2.22;0.55;;;2.30;99.90;;;;;;5077811;28;25080;-80
2023/03/27 12:21:12;;;;;;;3.92;0.50;;;2.40;99.90;;;;;;5076793;28;25137;-75
2023/03/27 12:24:03;;;;;;;2.80;0.52;;;2.50;99.90;;;;;;5077655;28;25056;-78
2023/03/27 12:26:49;;;;;;;4.90;0.55;;;2.70;99.90;;;;;;5060010;28;25092;-77
2023/03/27 12:29:34;;;;;;;1.80;0.30;;;3.10;99.90;;;;;;5059584;28;25059;-75
2023/03/27 12:32:54;;;;;;;8.82;0.63;;;3.30;99.90;;;;;;5059779;28;25131;-80
2023/03/27 12:35:25;;;;;;;8.18;1.10;;;3.70;99.90;;;;;;5056185;28;25066;-75
2023/03/27 12:38:07;;;;;;;3.55;0.55;;;4.00;99.90;;;;;;5077325;28;25063;-74
2023/03/27 12:40:40;;;;;;;1.42;0.30;;;4.30;99.90;;;;;;5077337;28;25066;-76
2023/03/27 12:43:29;;;;;;;4.53;0.80;;;4.60;99.90;;;;;;5115248;27;20405;-74
2023/03/27 12:46:27;;;;;;;4.03;0.52;;;5.00;99.90;;;;;;5094157;28;25072;-74
2023/03/27 12:49:04;;;;;;;6.97;0.70;;;5.50;99.90;;;;;;5094578;28;25075;-75
2023/03/27 12:52:05;;;;;;;1.75;0.60;;;6.00;99.90;;;;;;5093110;28;25122;-75
2023/03/27 12:54:39;;;;;;;4.05;0.68;;;6.30;99.90;;;;;;5055702;28;25121;-76
2023/03/27 12:57:21;;;;;;;4.00;1.23;;;6.30;99.90;;;;;;5055712;28;25065;-74
2023/03/27 12:59:48;;;;;;;2.15;0.50;;;6.20;99.90;;;;;;5073411;28;25070;-75
2023/03/27 13:02:34;;;;;;;2.38;0.82;;;5.80;99.90;;;;;;5073776;28;25064;-74
2023/03/27 13:05:13;;;;;;;2.22;0.60;;;5.40;99.90;;;;;;5073338;28;25075;-74
2023/03/27 13:07:50;;;;;;;5.72;0.65;;;5.00;99.90;;;;;;5073439;28;25050;-75
2023/03/27 13:10:45;;;;;;;1.00;0.40;;;4.80;99.90;;;;;;5073659;28;25059;-73
2023/03/27 13:13:43;;;;;;;1.42;0.30;;;4.50;99.90;;;;;;5073409;28;25063;-73
2023/03/27 13:16:29;;;;;;;3.13;1.38;;;4.30;99.90;;;;;;5055358;28;25112;-74
2023/03/27 13:19:36;;;;;;;2.15;0.38;;;4.10;99.90;;;;;;5073321;28;25110;-76
2023/03/27 13:22:27;;;;;;;2.25;0.60;;;3.80;99.90;;;;;;4992218;28;25050;-74
2023/03/27 13:25:17;;;;;;;9.02;2.67;;;3.60;99.90;;;;;;4991953;28;25130;-74
2023/03/27 13:28:11;;;;;;;4.03;0.57;;;3.40;99.90;;;;;;5040177;28;25087;-74
2023/03/27 13:30:50;;;;;;;0.57;0.22;;;3.30;99.90;;;;;;5053705;28;25050;-74
2023/03/27 13:33:26;;;;;;;5.32;1.10;;;3.30;99.90;;;;;;5055084;28;25138;-77
2023/03/27 13:35:56;;;;;;;;;;;3.40;99.90;;;;;;5073375;28;25083;-73
2023/03/27 13:38:42;;;;;;;21.13;6.28;;;3.80;99.90;;;;;;5072573;28;25129;-77
2023/03/27 13:41:49;;;;;;;3.80;0.70;;;4.30;99.90;;;;;;5072253;28;25069;-74